sensor_id;sensor_type;location;lat;lon;timestamp;pressure;altitude;pressure_sealevel;temperature;humidity
61128;BME280;47013;42.664;23.242;2023-02-22T00:00:53;93999.94;;;10.28;39.63
61128;BME280;47013;42.664;23.242;2023-02-22T00:03:23;93988.00;;;10.22;39.80
61128;BME280;47013;42.664;23.242;2023-02-22T00:05:54;93997.66;;;10.20;39.52
61128;BME280;47013;42.664;23.242;2023-02-22T00:08:24;93993.88;;;10.10;40.51
61128;BME280;47013;42.664;23.242;2023-02-22T00:10:58;94001.69;;;10.01;39.82
61128;BME280;47013;42.664;23.242;2023-02-22T00:13:24;94007.50;;;10.03;40.58
61128;BME280;47013;42.664;23.242;2023-02-22T00:15:53;93994.63;;;9.66;41.07
61128;BME280;47013;42.664;23.242;2023-02-22T00:18:19;94000.00;;;9.69;41.36
61128;BME280;47013;42.664;23.242;2023-02-22T00:20:44;93991.31;;;9.37;41.07
61128;BME280;47013;42.664;23.242;2023-02-22T00:23:15;94002.94;;;9.34;41.89
61128;BME280;47013;42.664;23.242;2023-02-22T00:25:43;93999.19;;;9.10;43.19
61128;BME280;47013;42.664;23.242;2023-02-22T00:28:09;93992.25;;;9.09;43.33
61128;BME280;47013;42.664;23.242;2023-02-22T00:30:34;93995.66;;;9.20;42.92
61128;BME280;47013;42.664;23.242;2023-02-22T00:33:00;94002.69;;;9.07;43.50
61128;BME280;47013;42.664;23.242;2023-02-22T00:35:29;93988.44;;;8.99;43.47
61128;BME280;47013;42.664;23.242;2023-02-22T00:37:58;93993.88;;;8.92;43.06
61128;BME280;47013;42.664;23.242;2023-02-22T00:40:26;93991.56;;;8.83;43.16
61128;BME280;47013;42.664;23.242;2023-02-22T00:42:52;93980.38;;;8.85;42.91
61128;BME280;47013;42.664;23.242;2023-02-22T00:45:20;93986.16;;;8.91;43.27
61128;BME280;47013;42.664;23.242;2023-02-22T00:47:47;93989.63;;;8.91;43.37
61128;BME280;47013;42.664;23.242;2023-02-22T00:50:14;93982.72;;;8.79;43.24
61128;BME280;47013;42.664;23.242;2023-02-22T00:52:39;93973.47;;;8.77;43.16
61128;BME280;47013;42.664;23.242;2023-02-22T00:55:07;93982.31;;;8.88;42.86
61128;BME280;47013;42.664;23.242;2023-02-22T00:57:37;93970.69;;;8.91;42.48
61128;BME280;47013;42.664;23.242;2023-02-22T01:00:05;93972.59;;;8.98;42.36
61128;BME280;47013;42.664;23.242;2023-02-22T01:02:39;93974.16;;;8.95;42.51
61128;BME280;47013;42.664;23.242;2023-02-22T01:05:06;93964.91;;;8.93;42.10
61128;BME280;47013;42.664;23.242;2023-02-22T01:07:33;93974.91;;;9.03;42.65
61128;BME280;47013;42.664;23.242;2023-02-22T01:09:59;93962.53;;;9.02;42.30
61128;BME280;47013;42.664;23.242;2023-02-22T01:12:25;93961.75;;;9.05;42.04
61128;BME280;47013;42.664;23.242;2023-02-22T01:14:51;93960.97;;;9.04;42.44
61128;BME280;47013;42.664;23.242;2023-02-22T01:17:17;93959.84;;;8.95;42.26
61128;BME280;47013;42.664;23.242;2023-02-22T01:19:42;93959.41;;;9.07;42.65
61128;BME280;47013;42.664;23.242;2023-02-22T01:22:08;93961.72;;;9.08;42.90
61128;BME280;47013;42.664;23.242;2023-02-22T01:24:33;93957.88;;;9.06;42.79
61128;BME280;47013;42.664;23.242;2023-02-22T01:26:59;93959.84;;;9.02;42.64
61128;BME280;47013;42.664;23.242;2023-02-22T01:29:26;93957.94;;;8.99;42.90
61128;BME280;47013;42.664;23.242;2023-02-22T01:31:54;93949.44;;;8.93;43.12
61128;BME280;47013;42.664;23.242;2023-02-22T01:34:21;93950.25;;;8.86;43.27
61128;BME280;47013;42.664;23.242;2023-02-22T01:36:47;93948.38;;;8.76;44.10
61128;BME280;47013;42.664;23.242;2023-02-22T01:39:12;93947.66;;;8.58;43.95
61128;BME280;47013;42.664;23.242;2023-02-22T01:41:37;93951.19;;;8.44;44.29
61128;BME280;47013;42.664;23.242;2023-02-22T01:46:51;93951.19;;;8.41;44.23
61128;BME280;47013;42.664;23.242;2023-02-22T01:49:17;93948.88;;;8.28;45.00
61128;BME280;47013;42.664;23.242;2023-02-22T01:51:48;93954.25;;;8.32;44.89
61128;BME280;47013;42.664;23.242;2023-02-22T01:59:24;93960.88;;;8.13;45.63
61128;BME280;47013;42.664;23.242;2023-02-22T02:01:50;93952.03;;;7.95;46.02
61128;BME280;47013;42.664;23.242;2023-02-22T02:04:20;93951.63;;;8.07;46.00
61128;BME280;47013;42.664;23.242;2023-02-22T02:06:53;93951.66;;;7.96;45.94
61128;BME280;47013;42.664;23.242;2023-02-22T02:12:10;93947.00;;;8.04;45.83
61128;BME280;47013;42.664;23.242;2023-02-22T02:14:37;93955.13;;;8.08;45.48
61128;BME280;47013;42.664;23.242;2023-02-22T02:17:10;93950.47;;;8.08;45.37
61128;BME280;47013;42.664;23.242;2023-02-22T02:19:43;93945.81;;;8.16;45.15
61128;BME280;47013;42.664;23.242;2023-02-22T02:22:23;93954.69;;;8.23;45.18
61128;BME280;47013;42.664;23.242;2023-02-22T02:33:03;93956.97;;;8.32;44.93
61128;BME280;47013;42.664;23.242;2023-02-22T02:35:46;93963.56;;;8.35;45.38
61128;BME280;47013;42.664;23.242;2023-02-22T02:38:20;93960.06;;;8.31;45.17
61128;BME280;47013;42.664;23.242;2023-02-22T02:40:57;93962.38;;;8.28;45.44
61128;BME280;47013;42.664;23.242;2023-02-22T02:46:02;93971.28;;;8.22;45.90
61128;BME280;47013;42.664;23.242;2023-02-22T02:48:32;93960.50;;;8.15;46.25
61128;BME280;47013;42.664;23.242;2023-02-22T02:51:00;93980.91;;;8.19;45.95
61128;BME280;47013;42.664;23.242;2023-02-22T02:53:37;93978.22;;;8.16;45.87
61128;BME280;47013;42.664;23.242;2023-02-22T02:56:03;93975.16;;;8.10;47.07
61128;BME280;47013;42.664;23.242;2023-02-22T02:58:28;93978.25;;;8.12;46.45
61128;BME280;47013;42.664;23.242;2023-02-22T03:00:58;93971.31;;;8.08;46.56
61128;BME280;47013;42.664;23.242;2023-02-22T03:04:20;93973.25;;;8.00;47.61
61128;BME280;47013;42.664;23.242;2023-02-22T03:12:35;93973.25;;;7.64;48.42
61128;BME280;47013;42.664;23.242;2023-02-22T03:15:12;93976.31;;;7.42;48.89
61128;BME280;47013;42.664;23.242;2023-02-22T03:17:50;93974.78;;;7.37;48.74
61128;BME280;47013;42.664;23.242;2023-02-22T03:20:23;93975.94;;;7.43;48.69
61128;BME280;47013;42.664;23.242;2023-02-22T03:23:16;93978.25;;;7.45;48.96
61128;BME280;47013;42.664;23.242;2023-02-22T03:25:49;93984.41;;;7.42;49.41
61128;BME280;47013;42.664;23.242;2023-02-22T03:28:17;93976.34;;;7.45;49.17
61128;BME280;47013;42.664;23.242;2023-02-22T03:31:01;93977.09;;;7.49;48.68
61128;BME280;47013;42.664;23.242;2023-02-22T03:33:35;93975.19;;;7.43;49.40
61128;BME280;47013;42.664;23.242;2023-02-22T03:38:37;93980.16;;;7.37;49.45
61128;BME280;47013;42.664;23.242;2023-02-22T03:41:06;93978.25;;;7.37;49.52
61128;BME280;47013;42.664;23.242;2023-02-22T03:43:45;93979.03;;;7.45;49.17
61128;BME280;47013;42.664;23.242;2023-02-22T03:46:12;93977.47;;;7.48;49.10
61128;BME280;47013;42.664;23.242;2023-02-22T03:49:13;93975.19;;;7.57;49.29
61128;BME280;47013;42.664;23.242;2023-02-22T03:51:42;93977.09;;;7.53;49.70
61128;BME280;47013;42.664;23.242;2023-02-22T03:54:08;93978.25;;;7.45;50.29
61128;BME280;47013;42.664;23.242;2023-02-22T03:56:44;93972.47;;;7.32;51.15
61128;BME280;47013;42.664;23.242;2023-02-22T03:59:14;93965.88;;;7.26;51.39
61128;BME280;47013;42.664;23.242;2023-02-22T04:01:40;93965.91;;;7.19;50.99
61128;BME280;47013;42.664;23.242;2023-02-22T04:04:05;93979.00;;;7.27;51.42
61128;BME280;47013;42.664;23.242;2023-02-22T04:06:31;93972.06;;;7.23;51.05
61128;BME280;47013;42.664;23.242;2023-02-22T04:08:56;93968.97;;;7.24;51.77
61128;BME280;47013;42.664;23.242;2023-02-22T04:11:22;93973.97;;;7.26;51.93
61128;BME280;47013;42.664;23.242;2023-02-22T04:13:47;93972.06;;;7.23;52.06
61128;BME280;47013;42.664;23.242;2023-02-22T04:16:13;93964.34;;;7.18;52.17
61128;BME280;47013;42.664;23.242;2023-02-22T04:18:38;93971.31;;;7.29;51.76
61128;BME280;47013;42.664;23.242;2023-02-22T04:21:04;93975.53;;;7.34;51.64
61128;BME280;47013;42.664;23.242;2023-02-22T04:23:29;93969.38;;;7.40;51.88
61128;BME280;47013;42.664;23.242;2023-02-22T04:25:54;93977.09;;;7.46;51.75
61128;BME280;47013;42.664;23.242;2023-02-22T04:28:20;93972.47;;;7.39;51.79
61128;BME280;47013;42.664;23.242;2023-02-22T04:30:45;93969.38;;;7.30;51.81
61128;BME280;47013;42.664;23.242;2023-02-22T04:33:11;93973.63;;;7.34;52.04
61128;BME280;47013;42.664;23.242;2023-02-22T04:35:37;93969.38;;;7.30;52.57
61128;BME280;47013;42.664;23.242;2023-02-22T04:38:02;93969.75;;;7.35;51.74
61128;BME280;47013;42.664;23.242;2023-02-22T04:40:28;93978.25;;;7.37;52.42
61128;BME280;47013;42.664;23.242;2023-02-22T04:42:54;93976.31;;;7.38;52.02
61128;BME280;47013;42.664;23.242;2023-02-22T04:45:19;93977.47;;;7.33;52.00
61128;BME280;47013;42.664;23.242;2023-02-22T04:47:45;93975.56;;;7.45;52.13
61128;BME280;47013;42.664;23.242;2023-02-22T04:50:11;93972.47;;;7.50;51.99
61128;BME280;47013;42.664;23.242;2023-02-22T04:52:36;93971.72;;;7.46;52.23
61128;BME280;47013;42.664;23.242;2023-02-22T04:55:02;93969.41;;;7.44;52.55
61128;BME280;47013;42.664;23.242;2023-02-22T04:57:29;93963.97;;;7.40;52.48
61128;BME280;47013;42.664;23.242;2023-02-22T04:59:54;93965.53;;;7.34;52.92
61128;BME280;47013;42.664;23.242;2023-02-22T05:02:20;93969.00;;;7.35;52.55
61128;BME280;47013;42.664;23.242;2023-02-22T05:04:45;93963.97;;;7.40;52.96
61128;BME280;47013;42.664;23.242;2023-02-22T05:07:11;93960.13;;;7.49;52.77
61128;BME280;47013;42.664;23.242;2023-02-22T05:09:36;93976.31;;;7.52;52.72
61128;BME280;47013;42.664;23.242;2023-02-22T05:12:02;93972.06;;;7.40;53.43
61128;BME280;47013;42.664;23.242;2023-02-22T05:14:27;93980.16;;;7.40;53.35
61128;BME280;47013;42.664;23.242;2023-02-22T05:16:54;93972.84;;;7.37;53.87
61128;BME280;47013;42.664;23.242;2023-02-22T05:19:20;93982.88;;;7.37;54.12
61128;BME280;47013;42.664;23.242;2023-02-22T05:21:46;93973.63;;;7.31;54.14
61128;BME280;47013;42.664;23.242;2023-02-22T05:24:11;93992.09;;;7.29;54.20
61128;BME280;47013;42.664;23.242;2023-02-22T05:26:36;93979.75;;;7.24;53.87
61128;BME280;47013;42.664;23.242;2023-02-22T05:29:02;93995.59;;;7.29;53.67
61128;BME280;47013;42.664;23.242;2023-02-22T05:31:27;93996.72;;;7.18;54.37
61128;BME280;47013;42.664;23.242;2023-02-22T05:33:53;94000.94;;;7.19;54.29
61128;BME280;47013;42.664;23.242;2023-02-22T05:36:18;94002.06;;;7.14;54.27
61128;BME280;47013;42.664;23.242;2023-02-22T05:38:43;94007.06;;;7.08;54.54
61128;BME280;47013;42.664;23.242;2023-02-22T05:41:11;94016.31;;;7.04;54.85
61128;BME280;47013;42.664;23.242;2023-02-22T05:43:38;94016.28;;;7.00;55.57
61128;BME280;47013;42.664;23.242;2023-02-22T05:46:03;94017.47;;;7.06;55.04
61128;BME280;47013;42.664;23.242;2023-02-22T05:48:29;94012.84;;;7.10;55.11
61128;BME280;47013;42.664;23.242;2023-02-22T05:50:55;94014.00;;;7.13;55.18
61128;BME280;47013;42.664;23.242;2023-02-22T05:53:20;94015.56;;;7.14;55.36
61128;BME280;47013;42.664;23.242;2023-02-22T05:55:48;94017.13;;;7.22;55.58
61128;BME280;47013;42.664;23.242;2023-02-22T05:58:13;94021.41;;;7.30;55.31
61128;BME280;47013;42.664;23.242;2023-02-22T06:00:39;94022.56;;;7.33;55.48
61128;BME280;47013;42.664;23.242;2023-02-22T06:03:06;94017.16;;;7.36;55.45
61128;BME280;47013;42.664;23.242;2023-02-22T06:05:33;94024.13;;;7.48;55.77
61128;BME280;47013;42.664;23.242;2023-02-22T06:07:58;94011.44;;;7.56;55.20
61128;BME280;47013;42.664;23.242;2023-02-22T06:10:24;94017.19;;;7.61;54.80
61128;BME280;47013;42.664;23.242;2023-02-22T06:12:52;94017.56;;;7.67;54.78
61128;BME280;47013;42.664;23.242;2023-02-22T06:15:19;94024.16;;;7.77;54.26
61128;BME280;47013;42.664;23.242;2023-02-22T06:17:46;94032.66;;;7.86;54.10
61128;BME280;47013;42.664;23.242;2023-02-22T06:20:13;94038.41;;;7.91;54.07
61128;BME280;47013;42.664;23.242;2023-02-22T06:22:39;94036.88;;;7.97;53.68
61128;BME280;47013;42.664;23.242;2023-02-22T06:25:09;94039.19;;;7.99;53.35
61128;BME280;47013;42.664;23.242;2023-02-22T06:27:37;94039.56;;;8.05;53.11
61128;BME280;47013;42.664;23.242;2023-02-22T06:30:03;94038.81;;;8.15;52.62
61128;BME280;47013;42.664;23.242;2023-02-22T06:32:31;94034.94;;;8.23;52.18
61128;BME280;47013;42.664;23.242;2023-02-22T06:34:56;94038.00;;;8.32;52.38
61128;BME280;47013;42.664;23.242;2023-02-22T06:37:21;94031.84;;;8.49;52.04
61128;BME280;47013;42.664;23.242;2023-02-22T06:39:47;94035.28;;;8.64;52.00
61128;BME280;47013;42.664;23.242;2023-02-22T06:42:12;94026.38;;;8.78;51.58
61128;BME280;47013;42.664;23.242;2023-02-22T06:44:38;94035.25;;;8.78;51.34
61128;BME280;47013;42.664;23.242;2023-02-22T06:47:03;94023.19;;;9.04;61.15
61128;BME280;47013;42.664;23.242;2023-02-22T06:49:28;94024.22;;;9.28;52.66
61128;BME280;47013;42.664;23.242;2023-02-22T06:51:54;94022.97;;;9.51;51.54
61128;BME280;47013;42.664;23.242;2023-02-22T06:54:20;94025.88;;;9.78;50.96
61128;BME280;47013;42.664;23.242;2023-02-22T06:56:46;94025.28;;;10.00;50.70
61128;BME280;47013;42.664;23.242;2023-02-22T06:59:12;94021.69;;;10.21;50.08
61128;BME280;47013;42.664;23.242;2023-02-22T07:01:41;94024.81;;;10.13;48.08
61128;BME280;47013;42.664;23.242;2023-02-22T07:04:07;94031.50;;;10.01;48.56
61128;BME280;47013;42.664;23.242;2023-02-22T07:06:32;94048.28;;;9.82;47.38
61128;BME280;47013;42.664;23.242;2023-02-22T07:08:57;94044.72;;;9.29;47.66
61128;BME280;47013;42.664;23.242;2023-02-22T07:11:23;94029.72;;;9.14;48.16
61128;BME280;47013;42.664;23.242;2023-02-22T07:13:48;94030.84;;;9.20;48.20
61128;BME280;47013;42.664;23.242;2023-02-22T07:16:14;94040.41;;;9.39;48.30
61128;BME280;47013;42.664;23.242;2023-02-22T07:18:39;94036.25;;;9.20;48.28
61128;BME280;47013;42.664;23.242;2023-02-22T07:21:05;94035.94;;;9.04;48.08
61128;BME280;47013;42.664;23.242;2023-02-22T07:23:31;94036.28;;;9.13;48.55
61128;BME280;47013;42.664;23.242;2023-02-22T07:26:01;94040.78;;;9.37;47.79
61128;BME280;47013;42.664;23.242;2023-02-22T07:28:26;94036.84;;;9.56;47.45
61128;BME280;47013;42.664;23.242;2023-02-22T07:30:52;94042.59;;;9.65;46.99
61128;BME280;47013;42.664;23.242;2023-02-22T07:33:18;94036.47;;;9.54;47.51
61128;BME280;47013;42.664;23.242;2023-02-22T07:35:45;94044.84;;;9.74;47.49
61128;BME280;47013;42.664;23.242;2023-02-22T07:38:11;94032.34;;;9.91;46.83
61128;BME280;47013;42.664;23.242;2023-02-22T07:40:37;94036.78;;;10.15;46.48
61128;BME280;47013;42.664;23.242;2023-02-22T07:43:09;94042.34;;;10.49;46.00
61128;BME280;47013;42.664;23.242;2023-02-22T07:45:37;94028.91;;;10.76;45.37
61128;BME280;47013;42.664;23.242;2023-02-22T07:48:04;94038.22;;;11.09;66.42
61128;BME280;47013;42.664;23.242;2023-02-22T07:50:31;94032.16;;;12.36;67.68
61128;BME280;47013;42.664;23.242;2023-02-22T07:52:59;94030.16;;;12.64;46.81
61128;BME280;47013;42.664;23.242;2023-02-22T07:55:26;94020.56;;;12.79;43.52
61128;BME280;47013;42.664;23.242;2023-02-22T07:57:59;94018.03;;;12.88;42.66
61128;BME280;47013;42.664;23.242;2023-02-22T08:00:30;94005.75;;;13.00;41.89
61128;BME280;47013;42.664;23.242;2023-02-22T08:02:58;94020.16;;;13.20;41.98
61128;BME280;47013;42.664;23.242;2023-02-22T08:05:29;94017.63;;;13.49;55.09
61128;BME280;47013;42.664;23.242;2023-02-22T08:07:55;94010.75;;;13.61;40.54
61128;BME280;47013;42.664;23.242;2023-02-22T08:10:22;94011.44;;;13.65;39.61
61128;BME280;47013;42.664;23.242;2023-02-22T08:12:49;94014.78;;;13.73;39.74
61128;BME280;47013;42.664;23.242;2023-02-22T08:15:36;94014.22;;;13.81;39.36
61128;BME280;47013;42.664;23.242;2023-02-22T08:18:07;94014.88;;;13.85;39.82
61128;BME280;47013;42.664;23.242;2023-02-22T08:20:34;94019.09;;;14.23;39.39
61128;BME280;47013;42.664;23.242;2023-02-22T08:22:59;94019.19;;;14.52;38.59
61128;BME280;47013;42.664;23.242;2023-02-22T08:25:27;94015.91;;;14.73;36.98
61128;BME280;47013;42.664;23.242;2023-02-22T08:27:59;94016.00;;;14.69;37.45
61128;BME280;47013;42.664;23.242;2023-02-22T08:30:26;94014.06;;;14.99;37.08
61128;BME280;47013;42.664;23.242;2023-02-22T08:32:52;94014.03;;;15.28;36.74
61128;BME280;47013;42.664;23.242;2023-02-22T08:35:18;94016.28;;;15.58;36.27
61128;BME280;47013;42.664;23.242;2023-02-22T08:37:47;94008.34;;;15.77;35.29
61128;BME280;47013;42.664;23.242;2023-02-22T08:40:13;94014.81;;;15.83;35.00
61128;BME280;47013;42.664;23.242;2023-02-22T08:42:41;94015.38;;;16.03;35.10
61128;BME280;47013;42.664;23.242;2023-02-22T08:45:07;94007.47;;;16.31;35.16
61128;BME280;47013;42.664;23.242;2023-02-22T08:47:32;94009.94;;;16.50;34.44
61128;BME280;47013;42.664;23.242;2023-02-22T08:49:58;94002.13;;;16.74;34.15
61128;BME280;47013;42.664;23.242;2023-02-22T08:52:23;94005.84;;;17.02;33.52
61128;BME280;47013;42.664;23.242;2023-02-22T08:54:49;94007.78;;;17.15;33.22
61128;BME280;47013;42.664;23.242;2023-02-22T08:57:14;94008.47;;;17.28;33.43
61128;BME280;47013;42.664;23.242;2023-02-22T08:59:39;94001.28;;;17.21;32.40
61128;BME280;47013;42.664;23.242;2023-02-22T09:02:07;94000.53;;;17.21;32.80
61128;BME280;47013;42.664;23.242;2023-02-22T09:04:37;93997.81;;;17.30;32.86
61128;BME280;47013;42.664;23.242;2023-02-22T09:07:03;94003.88;;;17.47;32.59
61128;BME280;47013;42.664;23.242;2023-02-22T09:09:28;94005.44;;;17.57;32.47
61128;BME280;47013;42.664;23.242;2023-02-22T09:11:53;93995.84;;;17.52;32.48
61128;BME280;47013;42.664;23.242;2023-02-22T09:14:19;94004.38;;;17.54;32.70
61128;BME280;47013;42.664;23.242;2023-02-22T09:16:44;94000.94;;;17.63;31.60
61128;BME280;47013;42.664;23.242;2023-02-22T09:19:10;93992.56;;;17.66;31.90
61128;BME280;47013;42.664;23.242;2023-02-22T09:21:35;93999.25;;;17.34;32.01
61128;BME280;47013;42.664;23.242;2023-02-22T09:24:01;93994.78;;;17.06;32.79
61128;BME280;47013;42.664;23.242;2023-02-22T09:26:34;93985.72;;;16.96;32.89
61128;BME280;47013;42.664;23.242;2023-02-22T09:29:06;93994.97;;;17.12;32.60
61128;BME280;47013;42.664;23.242;2023-02-22T09:31:36;93995.72;;;16.90;33.12
61128;BME280;47013;42.664;23.242;2023-02-22T09:34:03;93990.00;;;16.97;33.08
61128;BME280;47013;42.664;23.242;2023-02-22T09:36:30;93991.56;;;16.86;33.29
61128;BME280;47013;42.664;23.242;2023-02-22T09:38:56;93990.97;;;16.69;33.35
61128;BME280;47013;42.664;23.242;2023-02-22T09:41:30;93993.31;;;16.45;33.63
61128;BME280;47013;42.664;23.242;2023-02-22T09:46:48;93983.63;;;16.06;34.83
61128;BME280;47013;42.664;23.242;2023-02-22T09:49:17;93986.38;;;15.93;34.74
61128;BME280;47013;42.664;23.242;2023-02-22T09:52:16;93987.78;;;15.85;35.12
61128;BME280;47013;42.664;23.242;2023-02-22T09:54:48;93984.41;;;15.81;35.08
61128;BME280;47013;42.664;23.242;2023-02-22T09:57:26;93987.59;;;15.92;34.21
61128;BME280;47013;42.664;23.242;2023-02-22T10:00:22;93974.09;;;15.98;34.01
61128;BME280;47013;42.664;23.242;2023-02-22T10:05:51;93969.72;;;16.13;34.01
61128;BME280;47013;42.664;23.242;2023-02-22T10:08:18;93967.63;;;16.30;33.13
61128;BME280;47013;42.664;23.242;2023-02-22T10:10:46;93953.66;;;16.49;33.44
61128;BME280;47013;42.664;23.242;2023-02-22T10:16:00;93946.53;;;17.30;33.51
61128;BME280;47013;42.664;23.242;2023-02-22T10:24:07;93935.69;;;18.56;29.86
61128;BME280;47013;42.664;23.242;2023-02-22T10:26:41;93935.72;;;18.84;28.46
61128;BME280;47013;42.664;23.242;2023-02-22T10:29:21;93935.69;;;19.21;28.38
61128;BME280;47013;42.664;23.242;2023-02-22T10:31:59;93919.91;;;19.58;27.58
61128;BME280;47013;42.664;23.242;2023-02-22T10:34:29;93919.28;;;19.96;27.37
61128;BME280;47013;42.664;23.242;2023-02-22T10:37:04;93915.34;;;20.21;26.55
61128;BME280;47013;42.664;23.242;2023-02-22T10:39:37;93913.63;;;20.23;26.34
61128;BME280;47013;42.664;23.242;2023-02-22T10:42:05;93909.06;;;20.44;26.29
61128;BME280;47013;42.664;23.242;2023-02-22T10:44:36;93907.44;;;20.61;25.76
61128;BME280;47013;42.664;23.242;2023-02-22T10:47:04;93899.97;;;20.77;25.78
61128;BME280;47013;42.664;23.242;2023-02-22T10:49:35;93901.44;;;21.02;25.82
61128;BME280;47013;42.664;23.242;2023-02-22T10:52:21;93895.75;;;21.20;25.02
61128;BME280;47013;42.664;23.242;2023-02-22T10:54:49;93898.34;;;21.53;25.08
61128;BME280;47013;42.664;23.242;2023-02-22T10:57:21;93888.53;;;21.67;24.84
61128;BME280;47013;42.664;23.242;2023-02-22T10:59:49;93886.91;;;21.60;24.42
61128;BME280;47013;42.664;23.242;2023-02-22T11:02:30;93880.69;;;21.80;24.37
61128;BME280;47013;42.664;23.242;2023-02-22T11:04:58;93889.91;;;21.92;24.32
61128;BME280;47013;42.664;23.242;2023-02-22T11:07:30;93879.53;;;21.87;24.26
61128;BME280;47013;42.664;23.242;2023-02-22T11:14:54;93874.59;;;21.91;23.73
61128;BME280;47013;42.664;23.242;2023-02-22T11:17:28;93869.06;;;22.05;23.71
61128;BME280;47013;42.664;23.242;2023-02-22T11:19:55;93863.91;;;22.33;23.09
61128;BME280;47013;42.664;23.242;2023-02-22T11:22:40;93859.63;;;22.53;22.91
61128;BME280;47013;42.664;23.242;2023-02-22T11:25:06;93858.50;;;22.85;23.23
61128;BME280;47013;42.664;23.242;2023-02-22T11:27:40;93858.13;;;22.98;22.50
61128;BME280;47013;42.664;23.242;2023-02-22T11:30:31;93853.84;;;22.97;22.04
61128;BME280;47013;42.664;23.242;2023-02-22T11:38:23;93847.84;;;23.30;21.27
61128;BME280;47013;42.664;23.242;2023-02-22T11:41:12;93842.19;;;23.13;21.57
61128;BME280;47013;42.664;23.242;2023-02-22T11:43:42;93839.94;;;23.17;21.55
61128;BME280;47013;42.664;23.242;2023-02-22T11:46:12;93845.69;;;23.14;21.76
61128;BME280;47013;42.664;23.242;2023-02-22T11:49:05;93839.16;;;23.11;21.63
61128;BME280;47013;42.664;23.242;2023-02-22T11:56:52;93834.09;;;23.10;21.68
61128;BME280;47013;42.664;23.242;2023-02-22T11:59:41;93828.44;;;23.24;21.44
61128;BME280;47013;42.664;23.242;2023-02-22T12:15:43;93816.38;;;23.22;20.13
61128;BME280;47013;42.664;23.242;2023-02-22T12:21:12;93807.22;;;23.73;20.10
61128;BME280;47013;42.664;23.242;2023-02-22T12:23:52;93804.22;;;23.82;20.54
61128;BME280;47013;42.664;23.242;2023-02-22T12:26:34;93802.88;;;23.67;19.96
61128;BME280;47013;42.664;23.242;2023-02-22T12:31:45;93790.69;;;23.85;20.03
61128;BME280;47013;42.664;23.242;2023-02-22T12:36:50;93790.00;;;23.58;20.38
61128;BME280;47013;42.664;23.242;2023-02-22T12:42:04;93781.88;;;23.54;20.61
61128;BME280;47013;42.664;23.242;2023-02-22T12:44:38;93780.78;;;23.72;20.29
61128;BME280;47013;42.664;23.242;2023-02-22T12:47:05;93784.84;;;23.45;20.84
61128;BME280;47013;42.664;23.242;2023-02-22T13:00:24;93772.41;;;21.50;23.09
61128;BME280;47013;42.664;23.242;2023-02-22T13:03:30;93781.56;;;20.82;24.06
61128;BME280;47013;42.664;23.242;2023-02-22T13:08:47;93769.84;;;20.04;24.91
61128;BME280;47013;42.664;23.242;2023-02-22T13:14:40;93766.25;;;19.08;25.82
61128;BME280;47013;42.664;23.242;2023-02-22T13:17:41;93768.44;;;18.95;26.44
61128;BME280;47013;42.664;23.242;2023-02-22T13:20:31;93764.84;;;18.52;27.68
61128;BME280;47013;42.664;23.242;2023-02-22T13:30:51;93767.31;;;17.95;28.60
61128;BME280;47013;42.664;23.242;2023-02-22T13:36:23;93766.41;;;17.89;28.23
61128;BME280;47013;42.664;23.242;2023-02-22T13:39:10;93764.56;;;17.77;28.43
61128;BME280;47013;42.664;23.242;2023-02-22T13:44:41;93759.97;;;17.65;28.61
61128;BME280;47013;42.664;23.242;2023-02-22T13:52:49;93755.59;;;17.27;29.46
61128;BME280;47013;42.664;23.242;2023-02-22T13:55:25;93756.34;;;17.19;29.69
61128;BME280;47013;42.664;23.242;2023-02-22T13:58:05;93753.53;;;17.00;29.93
61128;BME280;47013;42.664;23.242;2023-02-22T14:00:50;93755.22;;;16.98;30.21
61128;BME280;47013;42.664;23.242;2023-02-22T14:03:37;93755.16;;;16.89;30.67
61128;BME280;47013;42.664;23.242;2023-02-22T14:09:15;93757.22;;;16.75;31.16
61128;BME280;47013;42.664;23.242;2023-02-22T14:11:47;93768.19;;;16.75;31.27
61128;BME280;47013;42.664;23.242;2023-02-22T14:14:18;93758.06;;;16.63;31.39
61128;BME280;47013;42.664;23.242;2023-02-22T14:17:23;93759.41;;;16.59;31.60
61128;BME280;47013;42.664;23.242;2023-02-22T14:22:49;93757.34;;;16.41;32.02
61128;BME280;47013;42.664;23.242;2023-02-22T14:25:39;93762.53;;;16.48;32.25
61128;BME280;47013;42.664;23.242;2023-02-22T14:28:32;93757.38;;;16.50;32.48
61128;BME280;47013;42.664;23.242;2023-02-22T14:34:13;93756.38;;;16.35;32.85
61128;BME280;47013;42.664;23.242;2023-02-22T14:36:58;93758.88;;;16.20;33.53
61128;BME280;47013;42.664;23.242;2023-02-22T14:39:34;93756.56;;;16.18;33.52
61128;BME280;47013;42.664;23.242;2023-02-22T14:42:11;93757.47;;;16.15;33.87
61128;BME280;47013;42.664;23.242;2023-02-22T14:44:42;93748.16;;;16.13;34.02
61128;BME280;47013;42.664;23.242;2023-02-22T14:47:15;93755.50;;;16.16;34.34
61128;BME280;47013;42.664;23.242;2023-02-22T14:49:46;93750.44;;;16.14;34.27
61128;BME280;47013;42.664;23.242;2023-02-22T14:52:23;93749.13;;;16.19;34.41
61128;BME280;47013;42.664;23.242;2023-02-22T14:55:23;93755.69;;;16.21;33.98
61128;BME280;47013;42.664;23.242;2023-02-22T14:57:57;93755.81;;;16.18;34.45
61128;BME280;47013;42.664;23.242;2023-02-22T15:00:49;93754.16;;;16.20;34.41
61128;BME280;47013;42.664;23.242;2023-02-22T15:03:18;93761.16;;;16.21;34.37
61128;BME280;47013;42.664;23.242;2023-02-22T15:05:44;93757.34;;;16.19;34.67
61128;BME280;47013;42.664;23.242;2023-02-22T15:08:15;93753.97;;;16.15;34.73
61128;BME280;47013;42.664;23.242;2023-02-22T15:10:44;93754.16;;;16.20;34.70
61128;BME280;47013;42.664;23.242;2023-02-22T15:13:19;93758.56;;;16.18;34.77
61128;BME280;47013;42.664;23.242;2023-02-22T15:15:53;93760.75;;;16.10;35.20
61128;BME280;47013;42.664;23.242;2023-02-22T15:21:06;93755.22;;;16.01;35.22
61128;BME280;47013;42.664;23.242;2023-02-22T15:23:54;93755.47;;;15.94;35.64